Time,TemperatureF,DewpointF,PressureIn,WindDirection,WindDirectionDegrees,WindSpeedMPH,WindSpeedGustMPH,Humidity,HourlyPrecipIn,Conditions,Clouds,dailyrainin,SoftwareType,DateUTC
2013-09-03 00:01:00,67.5,63.5,29.69,SW,225,3.5,3.5,87,0.00,RA,,0.00,WeatherDisplay:10.37,2013-09-03 04:01:00,
2013-09-03 00:03:00,67.5,63.5,29.69,WSW,248,3.5,3.5,87,0.00,RA,,0.00,WeatherDisplay:10.37,2013-09-03 04:03:00,
2013-09-03 00:05:00,67.3,63.3,29.69,West,270,3.5,3.5,87,0.00,RA,,0.00,WeatherDisplay:10.37,2013-09-03 04:05:00,
2013-09-03 00:10:00,67.1,63.1,29.69,WSW,248,3.5,3.5,87,0.00,CLR,,0.00,WeatherDisplay:10.37,2013-09-03 04:10:00,
2013-09-03 00:15:00,66.9,63.2,29.69,WSW,248,3.5,3.5,88,0.00,CLR,,0.00,WeatherDisplay:10.37,2013-09-03 04:15:00,
2013-09-03 00:20:00,66.7,63.0,29.69,West,270,3.2,3.2,88,0.00,CLR,,0.00,WeatherDisplay:10.37,2013-09-03 04:20:00,
2013-09-03 00:25:00,66.6,62.9,29.68,SW,225,3.5,3.5,88,0.00,CLR,,0.00,WeatherDisplay:10.37,2013-09-03 04:25:00,
2013-09-03 00:31:00,66.6,62.9,29.68,WSW,248,3.5,3.5,88,0.00,CLR,,0.00,WeatherDisplay:10.37,2013-09-03 04:31:00,
2013-09-03 00:36:00,66.2,62.9,29.68,WSW,248,4.6,4.6,89,0.00,CLR,,0.00,WeatherDisplay:10.37,2013-09-03 04:36:00,
2013-09-03 00:41:00,66.0,62.7,29.68,WSW,248,3.7,3.8,89,0.00,CLR,,0.00,WeatherDisplay:10.37,2013-09-03 04:41:00,
2013-09-03 00:46:00,66.0,62.7,29.68,West,270,3.5,3.5,89,0.00,CLR,,0.00,WeatherDisplay:10.37,2013-09-03 04:46:00,
2013-09-03 00:51:00,65.8,62.5,29.68,WSW,248,3.5,3.5,89,0.00,CLR,,0.00,WeatherDisplay:10.37,2013-09-03 04:51:00,
2013-09-03 00:56:00,65.7,62.4,29.68,WSW,248,3.5,3.5,89,0.00,CLR,,0.00,WeatherDisplay:10.37,2013-09-03 04:56:00,
2013-09-03 01:01:00,65.7,62.4,29.68,West,270,3.7,3.7,89,0.00,CLR,,0.00,WeatherDisplay:10.37,2013-09-03 05:01:00,
2013-09-03 01:06:00,65.7,62.4,29.68,West,270,3.5,3.5,89,0.00,CLR,,0.00,WeatherDisplay:10.37,2013-09-03 05:06:00,
2013-09-03 01:11:00,65.7,62.4,29.68,WSW,248,3.5,3.5,89,0.00,CLR,,0.00,WeatherDisplay:10.37,2013-09-03 05:11:00,
2013-09-03 01:16:00,65.5,62.2,29.68,WSW,248,3.5,3.5,89,0.00,CLR,,0.00,WeatherDisplay:10.37,2013-09-03 05:16:00,
2013-09-03 01:21:00,65.1,61.8,29.68,West,270,3.5,3.5,89,0.00,CLR,,0.00,WeatherDisplay:10.37,2013-09-03 05:21:00,
2013-09-03 01:26:00,64.9,61.6,29.68,WSW,248,3.5,3.5,89,0.00,CLR,,0.00,WeatherDisplay:10.37,2013-09-03 05:26:00,
2013-09-03 01:31:00,64.9,61.6,29.68,WSW,248,2.7,2.7,89,0.00,FEW,,0.00,WeatherDisplay:10.37,2013-09-03 05:31:00,
2013-09-03 01:36:00,64.8,61.5,29.68,WSW,248,2.7,2.7,89,0.00,FEW,,0.00,WeatherDisplay:10.37,2013-09-03 05:36:00,
2013-09-03 01:41:00,64.6,61.6,29.68,WSW,248,2.7,2.7,90,0.00,FEW,,0.00,WeatherDisplay:10.37,2013-09-03 05:41:00,
2013-09-03 01:46:00,64.4,61.4,29.68,WSW,248,3.5,3.5,90,0.00,FEW,,0.00,WeatherDisplay:10.37,2013-09-03 05:46:00,
2013-09-03 01:51:00,64.0,61.0,29.68,WSW,248,2.7,2.7,90,0.00,FEW,,0.00,WeatherDisplay:10.37,2013-09-03 05:51:00,
2013-09-03 01:56:00,64.0,61.3,29.68,SW,225,3.5,3.5,91,0.00,FEW,,0.00,WeatherDisplay:10.37,2013-09-03 05:56:00,
2013-09-03 02:01:00,64.0,61.3,29.68,SSW,202,2.3,2.3,91,0.00,FEW,,0.00,WeatherDisplay:10.37,2013-09-03 06:01:00,
2013-09-03 02:06:00,63.9,61.2,29.68,SW,225,0.0,0.0,91,0.00,FEW,,0.00,WeatherDisplay:10.37,2013-09-03 06:06:00,
2013-09-03 02:11:00,63.7,61.0,29.68,SW,225,0.0,0.0,91,0.00,FEW,,0.00,WeatherDisplay:10.37,2013-09-03 06:11:00,
2013-09-03 02:16:00,63.5,60.8,29.68,ESE,112,0.0,0.0,91,0.00,FEW,,0.00,WeatherDisplay:10.37,2013-09-03 06:16:00,
2013-09-03 02:21:00,63.3,60.6,29.68,ESE,112,0.0,0.3,91,0.00,FEW,,0.00,WeatherDisplay:10.37,2013-09-03 06:21:00,
2013-09-03 02:26:00,63.3,60.6,29.67,SW,225,1.7,1.7,91,0.00,FEW,,0.00,WeatherDisplay:10.37,2013-09-03 06:26:00,
2013-09-03 02:31:00,63.0,60.3,29.67,West,270,2.7,2.7,91,0.00,CLR,,0.00,WeatherDisplay:10.37,2013-09-03 06:31:00,
2013-09-03 02:36:00,62.8,60.1,29.68,WSW,248,2.2,2.2,91,0.00,CLR,,0.00,WeatherDisplay:10.37,2013-09-03 06:36:00,
2013-09-03 02:41:00,62.8,60.1,29.68,SW,225,2.3,2.3,91,0.00,CLR,,0.00,WeatherDisplay:10.37,2013-09-03 06:41:00,
2013-09-03 02:46:00,62.8,60.1,29.67,WSW,248,1.7,1.7,91,0.00,CLR,,0.00,WeatherDisplay:10.37,2013-09-03 06:46:00,
2013-09-03 02:51:00,63.0,60.6,29.67,West,270,2.7,2.7,92,0.00,CLR,,0.00,WeatherDisplay:10.37,2013-09-03 06:51:00,
2013-09-03 02:56:00,63.1,60.7,29.67,SW,225,1.1,1.1,92,0.00,CLR,,0.00,WeatherDisplay:10.37,2013-09-03 06:56:00,
2013-09-03 03:01:00,63.3,60.9,29.67,WSW,248,2.3,2.4,92,0.00,CLR,,0.00,WeatherDisplay:10.37,2013-09-03 07:01:00,
2013-09-03 03:06:00,63.3,60.9,29.67,WSW,248,2.7,2.7,92,0.00,CLR,,0.00,WeatherDisplay:10.37,2013-09-03 07:06:00,
2013-09-03 03:11:00,63.1,60.7,29.67,WSW,248,2.3,2.3,92,0.00,CLR,,0.00,WeatherDisplay:10.37,2013-09-03 07:11:00,
2013-09-03 03:16:00,63.0,60.6,29.67,WSW,248,2.3,2.3,92,0.00,CLR,,0.00,WeatherDisplay:10.37,2013-09-03 07:16:00,
2013-09-03 03:21:00,62.6,60.2,29.67,SW,225,2.3,2.3,92,0.00,CLR,,0.00,WeatherDisplay:10.37,2013-09-03 07:21:00,
2013-09-03 03:26:00,62.6,60.2,29.67,West,270,3.5,3.5,92,0.00,CLR,,0.00,WeatherDisplay:10.37,2013-09-03 07:26:00,
2013-09-03 03:31:00,62.6,60.2,29.67,SW,225,2.3,2.3,92,0.00,CLR,,0.00,WeatherDisplay:10.37,2013-09-03 07:31:00,
2013-09-03 03:36:00,62.8,60.4,29.68,SSW,202,2.3,2.6,92,0.00,CLR,,0.00,WeatherDisplay:10.37,2013-09-03 07:36:00,
2013-09-03 03:41:00,62.6,60.2,29.68,SW,225,2.7,2.7,92,0.00,CLR,,0.00,WeatherDisplay:10.37,2013-09-03 07:41:00,
2013-09-03 03:46:00,62.1,59.7,29.68,SW,225,4.7,4.7,92,0.00,CLR,,0.00,WeatherDisplay:10.37,2013-09-03 07:46:00,
2013-09-03 03:51:00,62.2,59.8,29.68,WSW,248,4.6,4.6,92,0.00,CLR,,0.00,WeatherDisplay:10.37,2013-09-03 07:51:00,
2013-09-03 03:56:00,62.4,60.0,29.68,WSW,248,4.6,4.6,92,0.00,CLR,,0.00,WeatherDisplay:10.37,2013-09-03 07:56:00,
2013-09-03 04:01:00,62.4,60.0,29.67,WSW,248,4.6,4.6,92,0.00,CLR,,0.00,WeatherDisplay:10.37,2013-09-03 08:01:00,
2013-09-03 04:06:00,62.2,59.8,29.67,WSW,248,2.7,2.8,92,0.00,CLR,,0.00,WeatherDisplay:10.37,2013-09-03 08:06:00,
2013-09-03 04:11:00,62.1,59.7,29.68,SW,225,2.3,2.6,92,0.00,CLR,,0.00,WeatherDisplay:10.37,2013-09-03 08:11:00,
2013-09-03 04:16:00,62.1,59.7,29.68,SW,225,2.7,2.7,92,0.00,CLR,,0.00,WeatherDisplay:10.37,2013-09-03 08:16:00,
2013-09-03 04:21:00,62.2,60.2,29.68,West,270,3.5,3.5,93,0.00,CLR,,0.00,WeatherDisplay:10.37,2013-09-03 08:21:00,
2013-09-03 04:26:00,62.2,60.2,29.68,SW,225,3.5,3.5,93,0.00,CLR,,0.00,WeatherDisplay:10.37,2013-09-03 08:26:00,
2013-09-03 04:31:00,62.4,60.3,29.68,SW,225,4.6,4.6,93,0.00,CLR,,0.00,WeatherDisplay:10.37,2013-09-03 08:31:00,
2013-09-03 04:36:00,62.4,60.3,29.68,West,270,3.7,3.7,93,0.00,CLR,,0.00,WeatherDisplay:10.37,2013-09-03 08:36:00,
2013-09-03 04:41:00,62.4,60.3,29.68,WSW,248,3.7,3.7,93,0.00,CLR,,0.00,WeatherDisplay:10.37,2013-09-03 08:41:00,
2013-09-03 04:46:00,62.2,60.2,29.68,SW,225,4.2,4.2,93,0.00,CLR,,0.00,WeatherDisplay:10.37,2013-09-03 08:46:00,
2013-09-03 04:51:00,62.2,60.2,29.68,SW,225,5.8,5.8,93,0.00,CLR,,0.00,WeatherDisplay:10.37,2013-09-03 08:51:00,
2013-09-03 04:56:00,62.2,60.2,29.68,SW,225,5.8,5.8,93,0.00,CLR,,0.00,WeatherDisplay:10.37,2013-09-03 08:56:00,
2013-09-03 05:01:00,62.1,60.1,29.69,SW,225,5.8,5.8,93,0.00,FEW,,0.00,WeatherDisplay:10.37,2013-09-03 09:01:00,
2013-09-03 05:06:00,62.1,60.1,29.69,SW,225,5.8,5.8,93,0.00,FEW,,0.00,WeatherDisplay:10.37,2013-09-03 09:06:00,
2013-09-03 05:11:00,61.9,59.9,29.69,WSW,248,4.6,4.6,93,0.00,FEW,,0.00,WeatherDisplay:10.37,2013-09-03 09:11:00,
2013-09-03 05:16:00,61.9,59.5,29.69,SSW,202,3.5,3.5,92,0.00,FEW,,0.00,WeatherDisplay:10.37,2013-09-03 09:16:00,
2013-09-03 05:21:00,61.9,59.5,29.69,SW,225,3.5,3.5,92,0.00,FEW,,0.00,WeatherDisplay:10.37,2013-09-03 09:21:00,
2013-09-03 05:26:00,61.5,59.2,29.70,SW,225,2.2,2.2,92,0.00,FEW,,0.00,WeatherDisplay:10.37,2013-09-03 09:26:00,
2013-09-03 05:31:00,61.5,59.2,29.70,WSW,248,2.3,2.3,92,0.00,FEW,,0.00,WeatherDisplay:10.37,2013-09-03 09:31:00,
2013-09-03 05:36:00,61.2,58.9,29.70,SW,225,2.3,2.4,92,0.00,FEW,,0.00,WeatherDisplay:10.37,2013-09-03 09:36:00,
2013-09-03 05:41:00,61.0,58.7,29.70,SW,225,1.1,1.1,92,0.00,FEW,,0.00,WeatherDisplay:10.37,2013-09-03 09:41:00,
2013-09-03 05:46:00,61.0,58.7,29.70,WSW,248,2.7,2.7,92,0.00,FEW,,0.00,WeatherDisplay:10.37,2013-09-03 09:46:00,
2013-09-03 05:51:00,60.8,58.5,29.70,WSW,248,2.7,2.7,92,0.00,FEW,,0.00,WeatherDisplay:10.37,2013-09-03 09:51:00,
2013-09-03 05:56:00,60.8,58.5,29.70,WSW,248,3.5,3.5,92,0.00,FEW,,0.00,WeatherDisplay:10.37,2013-09-03 09:56:00,
2013-09-03 06:01:00,60.8,58.5,29.70,WSW,248,3.5,3.5,92,0.00,FEW,,0.00,WeatherDisplay:10.37,2013-09-03 10:01:00,
2013-09-03 06:06:00,60.8,58.5,29.70,SW,225,4.2,4.2,92,0.00,FEW,,0.00,WeatherDisplay:10.37,2013-09-03 10:06:00,
2013-09-03 06:11:00,61.0,58.7,29.71,WSW,248,3.7,3.7,92,0.00,FEW,,0.00,WeatherDisplay:10.37,2013-09-03 10:11:00,
2013-09-03 06:16:00,61.0,58.7,29.71,WSW,248,4.6,4.6,92,0.00,FEW,,0.00,WeatherDisplay:10.37,2013-09-03 10:16:00,
2013-09-03 06:21:00,61.0,58.7,29.71,WSW,248,4.6,4.6,92,0.00,FEW,,0.00,WeatherDisplay:10.37,2013-09-03 10:21:00,
2013-09-03 06:26:00,61.0,58.7,29.70,WSW,248,4.6,4.6,92,0.00,FEW,,0.00,WeatherDisplay:10.37,2013-09-03 10:26:00,
2013-09-03 06:31:00,61.0,59.0,29.70,SW,225,4.6,4.6,93,0.00,CLR,,0.00,WeatherDisplay:10.37,2013-09-03 10:31:00,
2013-09-03 06:36:00,61.0,59.0,29.71,West,270,4.6,4.7,93,0.00,CLR,,0.00,WeatherDisplay:10.37,2013-09-03 10:36:00,
2013-09-03 06:41:00,61.0,59.0,29.71,SW,225,3.7,3.7,93,0.00,CLR,,0.00,WeatherDisplay:10.37,2013-09-03 10:41:00,
2013-09-03 06:46:00,61.0,59.0,29.71,WSW,248,4.6,4.6,93,0.00,CLR,,0.00,WeatherDisplay:10.37,2013-09-03 10:46:00,
2013-09-03 06:51:00,61.0,59.0,29.71,WSW,248,3.5,3.5,93,0.00,CLR,,0.00,WeatherDisplay:10.37,2013-09-03 10:51:00,
2013-09-03 06:56:00,61.0,59.0,29.71,SW,225,3.5,3.5,93,0.00,CLR,,0.00,WeatherDisplay:10.37,2013-09-03 10:56:00,
2013-09-03 07:01:00,61.2,59.2,29.72,West,270,5.8,5.8,93,0.00,CLR,,0.00,WeatherDisplay:10.37,2013-09-03 11:01:00,
2013-09-03 07:06:00,61.2,59.2,29.72,SW,225,4.6,4.6,93,0.00,CLR,,0.00,WeatherDisplay:10.37,2013-09-03 11:06:00,
2013-09-03 07:11:00,61.3,59.3,29.72,WSW,248,5.8,5.8,93,0.00,CLR,,0.00,WeatherDisplay:10.37,2013-09-03 11:11:00,
2013-09-03 07:16:00,61.3,59.3,29.72,WSW,248,4.6,4.6,93,0.00,CLR,,0.00,WeatherDisplay:10.37,2013-09-03 11:16:00,
2013-09-03 07:21:00,61.3,59.3,29.73,WSW,248,5.8,5.8,93,0.00,CLR,,0.00,WeatherDisplay:10.37,2013-09-03 11:21:00,
2013-09-03 07:26:00,61.5,59.5,29.73,WSW,248,4.7,4.8,93,0.00,CLR,,0.00,WeatherDisplay:10.37,2013-09-03 11:26:00,
2013-09-03 07:31:00,61.7,59.7,29.73,SW,225,6.9,6.9,93,0.00,OVC,,0.00,WeatherDisplay:10.37,2013-09-03 11:31:00,
2013-09-03 07:36:00,61.7,59.7,29.73,West,270,5.8,5.8,93,0.00,OVC,,0.00,WeatherDisplay:10.37,2013-09-03 11:36:00,
2013-09-03 07:41:00,61.9,59.9,29.73,West,270,4.2,4.2,93,0.00,OVC,,0.00,WeatherDisplay:10.37,2013-09-03 11:41:00,
2013-09-03 07:46:00,61.9,59.9,29.74,SW,225,5.8,5.8,93,0.00,OVC,,0.00,WeatherDisplay:10.37,2013-09-03 11:46:00,
2013-09-03 07:51:00,61.9,59.9,29.74,SW,225,5.8,5.8,93,0.00,OVC,,0.00,WeatherDisplay:10.37,2013-09-03 11:51:00,
2013-09-03 07:56:00,62.1,60.1,29.74,SSW,202,6.9,6.9,93,0.00,OVC,,0.00,WeatherDisplay:10.37,2013-09-03 11:56:00,
2013-09-03 08:01:00,62.1,59.7,29.74,WSW,248,6.9,6.9,92,0.00,OVC,,0.00,WeatherDisplay:10.37,2013-09-03 12:01:00,
2013-09-03 08:06:00,62.1,59.7,29.74,West,270,5.8,5.8,92,0.00,OVC,,0.00,WeatherDisplay:10.37,2013-09-03 12:06:00,
2013-09-03 08:11:00,62.2,59.8,29.75,NNW,338,5.8,5.8,92,0.00,OVC,,0.00,WeatherDisplay:10.37,2013-09-03 12:11:00,
2013-09-03 08:16:00,62.4,59.7,29.75,West,270,6.9,6.9,91,0.00,OVC,,0.00,WeatherDisplay:10.37,2013-09-03 12:16:00,
2013-09-03 08:21:00,63.7,60.7,29.75,WSW,248,4.6,4.6,90,0.00,OVC,,0.00,WeatherDisplay:10.37,2013-09-03 12:21:00,
2013-09-03 08:26:00,63.9,60.3,29.75,SW,225,6.9,6.9,88,0.00,OVC,,0.00,WeatherDisplay:10.37,2013-09-03 12:26:00,
2013-09-03 08:31:00,64.2,59.9,29.75,West,270,6.3,6.3,86,0.00,SCT,,0.00,WeatherDisplay:10.37,2013-09-03 12:31:00,
2013-09-03 08:36:00,64.6,60.0,29.75,NW,315,5.8,5.8,85,0.00,SCT,,0.00,WeatherDisplay:10.37,2013-09-03 12:36:00,
2013-09-03 08:41:00,65.3,60.3,29.75,WSW,248,6.9,7.1,84,0.00,SCT,,0.00,WeatherDisplay:10.37,2013-09-03 12:41:00,
2013-09-03 08:46:00,64.6,59.7,29.76,WNW,292,6.9,6.9,84,0.00,SCT,,0.00,WeatherDisplay:10.37,2013-09-03 12:46:00,
2013-09-03 08:51:00,64.4,59.5,29.76,West,270,6.8,6.8,84,0.00,SCT,,0.00,WeatherDisplay:10.37,2013-09-03 12:51:00,
2013-09-03 08:56:00,64.4,59.5,29.76,WSW,248,7.8,7.8,84,0.00,SCT,,0.00,WeatherDisplay:10.37,2013-09-03 12:56:00,
2013-09-03 09:01:00,64.0,59.4,29.76,West,270,8.1,8.1,85,0.00,OVC,,0.00,WeatherDisplay:10.37,2013-09-03 13:01:00,
2013-09-03 09:06:00,64.2,59.6,29.76,West,270,5.8,5.8,85,0.00,OVC,,0.00,WeatherDisplay:10.37,2013-09-03 13:06:00,
2013-09-03 09:11:00,65.5,59.9,29.76,West,270,5.8,5.8,82,0.00,OVC,,0.00,WeatherDisplay:10.37,2013-09-03 13:11:00,
2013-09-03 09:16:00,65.8,59.8,29.76,SW,225,4.6,4.6,81,0.00,OVC,,0.00,WeatherDisplay:10.37,2013-09-03 13:16:00,
2013-09-03 09:21:00,66.2,59.5,29.76,WSW,248,10.4,10.4,79,0.00,OVC,,0.00,WeatherDisplay:10.37,2013-09-03 13:21:00,
2013-09-03 09:26:00,66.2,59.8,29.76,West,270,6.3,6.3,80,0.00,OVC,,0.00,WeatherDisplay:10.37,2013-09-03 13:26:00,
2013-09-03 09:31:00,65.7,59.7,29.76,West,270,5.8,5.8,81,0.00,OVC,,0.00,WeatherDisplay:10.37,2013-09-03 13:31:00,
2013-09-03 09:36:00,65.7,59.7,29.77,SW,225,5.8,5.8,81,0.00,OVC,,0.00,WeatherDisplay:10.37,2013-09-03 13:36:00,
2013-09-03 09:41:00,65.5,59.2,29.77,WNW,292,7.3,7.3,80,0.00,OVC,,0.00,WeatherDisplay:10.37,2013-09-03 13:41:00,
2013-09-03 09:46:00,65.5,59.2,29.77,WSW,248,5.8,5.8,80,0.00,OVC,,0.00,WeatherDisplay:10.37,2013-09-03 13:46:00,
2013-09-03 09:51:00,65.8,59.5,29.77,WNW,292,4.7,4.7,80,0.00,OVC,,0.00,WeatherDisplay:10.37,2013-09-03 13:51:00,
2013-09-03 09:56:00,66.6,59.5,29.77,SW,225,8.1,8.1,78,0.00,OVC,,0.00,WeatherDisplay:10.37,2013-09-03 13:56:00,
2013-09-03 10:01:00,65.8,59.1,29.77,West,270,9.2,9.2,79,0.00,OVC,,0.00,WeatherDisplay:10.37,2013-09-03 14:01:00,
2013-09-03 10:06:00,66.7,59.6,29.77,WSW,248,8.1,8.1,78,0.00,OVC,,0.00,WeatherDisplay:10.37,2013-09-03 14:06:00,
2013-09-03 10:11:00,66.9,60.2,29.77,NNW,338,7.8,7.8,79,0.00,OVC,,0.00,WeatherDisplay:10.37,2013-09-03 14:11:00,
2013-09-03 10:16:00,66.4,59.0,29.77,NW,315,9.2,9.2,77,0.00,OVC,,0.00,WeatherDisplay:10.37,2013-09-03 14:16:00,
2013-09-03 10:21:00,66.6,58.8,29.77,West,270,10.4,10.4,76,0.00,OVC,,0.00,WeatherDisplay:10.37,2013-09-03 14:21:00,
2013-09-03 10:26:00,67.6,59.8,29.78,West,270,8.3,8.3,76,0.00,OVC,,0.00,WeatherDisplay:10.37,2013-09-03 14:26:00,
2013-09-03 10:31:00,66.9,59.1,29.78,West,270,9.2,9.2,76,0.00,OVC,,0.00,WeatherDisplay:10.37,2013-09-03 14:31:00,
2013-09-03 10:36:00,66.6,59.2,29.78,NW,315,6.9,6.9,77,0.00,OVC,,0.00,WeatherDisplay:10.37,2013-09-03 14:36:00,
2013-09-03 10:41:00,66.6,58.4,29.78,WNW,292,8.1,8.1,75,0.00,OVC,,0.00,WeatherDisplay:10.37,2013-09-03 14:41:00,
2013-09-03 10:46:00,66.4,58.2,29.77,West,270,8.1,8.1,75,0.00,OVC,,0.00,WeatherDisplay:10.37,2013-09-03 14:46:00,
2013-09-03 10:51:00,67.5,58.5,29.77,WNW,292,12.4,12.4,73,0.00,OVC,,0.00,WeatherDisplay:10.37,2013-09-03 14:51:00,
2013-09-03 10:56:00,66.4,57.5,29.77,West,270,14.5,14.5,73,0.00,OVC,,0.00,WeatherDisplay:10.37,2013-09-03 14:56:00,
2013-09-03 11:01:00,66.4,57.5,29.78,SW,225,13.8,13.8,73,0.00,BKN,,0.00,WeatherDisplay:10.37,2013-09-03 15:01:00,
2013-09-03 11:06:00,67.6,58.2,29.78,WSW,248,8.3,8.3,72,0.00,BKN,,0.00,WeatherDisplay:10.37,2013-09-03 15:06:00,
2013-09-03 11:11:00,68.2,58.0,29.78,West,270,10.4,10.4,70,0.00,BKN,,0.00,WeatherDisplay:10.37,2013-09-03 15:11:00,
2013-09-03 11:16:00,69.1,58.1,29.78,North,360,10.4,10.4,68,0.00,BKN,,0.00,WeatherDisplay:10.37,2013-09-03 15:16:00,
2013-09-03 11:21:00,68.5,57.9,29.78,West,270,12.4,12.4,69,0.00,BKN,,0.00,WeatherDisplay:10.37,2013-09-03 15:21:00,
2013-09-03 11:26:00,67.1,57.0,29.78,West,270,12.7,12.7,70,0.00,BKN,,0.00,WeatherDisplay:10.37,2013-09-03 15:26:00,
2013-09-03 11:31:00,67.6,57.5,29.78,West,270,10.4,10.4,70,0.00,BKN,,0.00,WeatherDisplay:10.37,2013-09-03 15:31:00,
2013-09-03 11:36:00,69.6,58.6,29.78,WSW,248,9.9,9.9,68,0.00,BKN,,0.00,WeatherDisplay:10.37,2013-09-03 15:36:00,
2013-09-03 11:41:00,69.8,57.1,29.78,WSW,248,11.5,11.5,64,0.00,BKN,,0.00,WeatherDisplay:10.37,2013-09-03 15:41:00,
2013-09-03 11:46:00,69.1,57.3,29.78,NNE,22,8.3,8.3,66,0.00,BKN,,0.00,WeatherDisplay:10.37,2013-09-03 15:46:00,
2013-09-03 11:51:00,68.4,57.0,29.78,WNW,292,10.4,10.4,67,0.00,BKN,,0.00,WeatherDisplay:10.37,2013-09-03 15:51:00,
2013-09-03 11:56:00,67.6,57.1,29.78,NNW,338,12.7,12.7,69,0.00,BKN,,0.00,WeatherDisplay:10.37,2013-09-03 15:56:00,
2013-09-03 12:01:00,68.0,57.0,29.78,West,270,11.4,11.4,68,0.00,BKN,,0.00,WeatherDisplay:10.37,2013-09-03 16:01:00,
2013-09-03 12:06:00,69.3,57.9,29.78,WSW,248,12.4,12.4,67,0.00,BKN,,0.00,WeatherDisplay:10.37,2013-09-03 16:06:00,
2013-09-03 12:11:00,70.2,57.9,29.79,SW,225,6.9,6.9,65,0.00,BKN,,0.00,WeatherDisplay:10.37,2013-09-03 16:11:00,
2013-09-03 12:16:00,69.6,57.3,29.79,SSW,202,15.0,15.0,65,0.00,BKN,,0.00,WeatherDisplay:10.37,2013-09-03 16:16:00,
2013-09-03 12:21:00,68.9,57.1,29.79,West,270,11.5,11.5,66,0.00,BKN,,0.00,WeatherDisplay:10.37,2013-09-03 16:21:00,
2013-09-03 12:26:00,70.3,57.5,29.79,WSW,248,11.5,11.5,64,0.00,BKN,,0.00,WeatherDisplay:10.37,2013-09-03 16:26:00,
2013-09-03 12:31:00,72.5,57.8,29.79,West,270,13.5,13.5,60,0.00,BKN,,0.00,WeatherDisplay:10.37,2013-09-03 16:31:00,
2013-09-03 12:36:00,70.7,55.7,29.78,WSW,248,12.7,12.7,59,0.00,BKN,,0.00,WeatherDisplay:10.37,2013-09-03 16:36:00,
2013-09-03 12:41:00,70.3,55.8,29.78,West,270,11.5,11.8,60,0.00,BKN,,0.00,WeatherDisplay:10.37,2013-09-03 16:41:00,
2013-09-03 12:46:00,69.6,56.0,29.78,WSW,248,10.4,10.4,62,0.00,BKN,,0.00,WeatherDisplay:10.37,2013-09-03 16:46:00,
2013-09-03 12:51:00,70.3,55.8,29.78,SW,225,9.2,10.3,60,0.00,BKN,,0.00,WeatherDisplay:10.37,2013-09-03 16:51:00,
2013-09-03 12:56:00,73.4,56.7,29.78,SW,225,9.9,9.9,56,0.00,BKN,,0.00,WeatherDisplay:10.37,2013-09-03 16:56:00,
2013-09-03 13:01:00,72.9,56.8,29.78,West,270,9.4,9.4,57,0.00,BKN,,0.00,WeatherDisplay:10.37,2013-09-03 17:01:00,
2013-09-03 13:06:00,69.8,56.2,29.78,WSW,248,11.5,11.5,62,0.00,BKN,,0.00,WeatherDisplay:10.37,2013-09-03 17:06:00,
2013-09-03 13:11:00,69.6,56.4,29.78,WSW,248,9.4,9.4,63,0.00,BKN,,0.00,WeatherDisplay:10.37,2013-09-03 17:11:00,
2013-09-03 13:16:00,69.1,55.5,29.78,WSW,248,8.8,8.8,62,0.00,BKN,,0.00,WeatherDisplay:10.37,2013-09-03 17:16:00,
2013-09-03 13:21:00,69.1,56.0,29.78,WSW,248,8.3,8.3,63,0.00,BKN,,0.00,WeatherDisplay:10.37,2013-09-03 17:21:00,
2013-09-03 13:26:00,70.5,55.0,29.78,WNW,292,11.5,11.5,58,0.00,BKN,,0.00,WeatherDisplay:10.37,2013-09-03 17:26:00,
2013-09-03 13:31:00,71.8,56.2,29.78,SW,225,11.9,11.9,58,0.00,BKN,,0.00,WeatherDisplay:10.37,2013-09-03 17:31:00,
2013-09-03 13:36:00,72.0,55.9,29.78,WSW,248,13.8,13.8,57,0.00,BKN,,0.00,WeatherDisplay:10.37,2013-09-03 17:36:00,
2013-09-03 13:41:00,71.8,55.3,29.78,WSW,248,11.9,11.9,56,0.00,BKN,,0.00,WeatherDisplay:10.37,2013-09-03 17:41:00,
2013-09-03 13:46:00,71.1,55.1,29.78,West,270,11.5,11.5,57,0.00,BKN,,0.00,WeatherDisplay:10.37,2013-09-03 17:46:00,
2013-09-03 13:51:00,72.0,55.4,29.78,West,270,10.4,10.4,56,0.00,BKN,,0.00,WeatherDisplay:10.37,2013-09-03 17:51:00,
2013-09-03 13:56:00,72.9,56.8,29.78,West,270,6.9,6.9,57,0.00,BKN,,0.00,WeatherDisplay:10.37,2013-09-03 17:56:00,
2013-09-03 14:01:00,72.0,56.9,29.78,NNW,338,10.4,10.4,59,0.00,BKN,,0.00,WeatherDisplay:10.37,2013-09-03 18:01:00,
2013-09-03 14:06:00,70.9,55.9,29.78,West,270,16.1,16.1,59,0.00,BKN,,0.00,WeatherDisplay:10.37,2013-09-03 18:06:00,
2013-09-03 14:11:00,71.2,56.6,29.78,West,270,9.2,9.2,60,0.00,BKN,,0.00,WeatherDisplay:10.37,2013-09-03 18:11:00,
2013-09-03 14:16:00,71.2,57.1,29.78,WSW,248,13.0,13.0,61,0.00,BKN,,0.00,WeatherDisplay:10.37,2013-09-03 18:16:00,
2013-09-03 14:21:00,71.8,56.7,29.78,WSW,248,12.7,12.7,59,0.00,BKN,,0.00,WeatherDisplay:10.37,2013-09-03 18:21:00,
2013-09-03 14:26:00,71.2,55.7,29.78,SSW,202,9.2,9.2,58,0.00,BKN,,0.00,WeatherDisplay:10.37,2013-09-03 18:26:00,
2013-09-03 14:31:00,72.5,57.4,29.78,WSW,248,9.2,9.2,59,0.00,BKN,,0.00,WeatherDisplay:10.37,2013-09-03 18:31:00,
2013-09-03 14:36:00,71.6,56.5,29.77,SW,225,9.9,9.9,59,0.00,BKN,,0.00,WeatherDisplay:10.37,2013-09-03 18:36:00,
2013-09-03 14:41:00,71.2,55.7,29.77,WSW,248,13.8,13.8,58,0.00,BKN,,0.00,WeatherDisplay:10.37,2013-09-03 18:41:00,
2013-09-03 14:46:00,72.5,56.4,29.78,WSW,248,11.5,11.5,57,0.00,BKN,,0.00,WeatherDisplay:10.37,2013-09-03 18:46:00,
2013-09-03 14:51:00,71.8,55.7,29.78,WSW,248,11.5,11.5,57,0.00,BKN,,0.00,WeatherDisplay:10.37,2013-09-03 18:51:00,
2013-09-03 14:56:00,72.0,55.9,29.78,West,270,11.5,11.5,57,0.00,BKN,,0.00,WeatherDisplay:10.37,2013-09-03 18:56:00,
2013-09-03 15:01:00,71.8,56.2,29.78,WSW,248,10.9,10.9,58,0.00,OVC,,0.00,WeatherDisplay:10.37,2013-09-03 19:01:00,
2013-09-03 15:06:00,70.9,56.8,29.78,West,270,11.5,11.5,61,0.00,OVC,,0.00,WeatherDisplay:10.37,2013-09-03 19:06:00,
2013-09-03 15:11:00,70.7,56.1,29.78,West,270,9.9,9.9,60,0.00,OVC,,0.00,WeatherDisplay:10.37,2013-09-03 19:11:00,
2013-09-03 15:16:00,72.5,57.4,29.78,WSW,248,6.9,6.9,59,0.00,OVC,,0.00,WeatherDisplay:10.37,2013-09-03 19:16:00,
2013-09-03 15:21:00,72.5,57.4,29.78,West,270,9.9,9.9,59,0.00,OVC,,0.00,WeatherDisplay:10.37,2013-09-03 19:21:00,
2013-09-03 15:26:00,71.1,56.5,29.77,WSW,248,15.0,15.0,60,0.00,OVC,,0.00,WeatherDisplay:10.37,2013-09-03 19:26:00,
2013-09-03 15:31:00,70.9,56.3,29.77,West,270,10.4,10.4,60,0.00,OVC,,0.00,WeatherDisplay:10.37,2013-09-03 19:31:00,
2013-09-03 15:36:00,72.0,57.4,29.77,West,270,10.4,10.4,60,0.00,OVC,,0.00,WeatherDisplay:10.37,2013-09-03 19:36:00,
2013-09-03 15:41:00,71.8,57.2,29.77,NNW,338,11.4,11.4,60,0.00,OVC,,0.00,WeatherDisplay:10.37,2013-09-03 19:41:00,
2013-09-03 15:46:00,70.7,56.6,29.77,WSW,248,13.8,13.8,61,0.00,OVC,,0.00,WeatherDisplay:10.37,2013-09-03 19:46:00,
2013-09-03 15:51:00,70.9,57.2,29.77,WSW,248,11.5,11.5,62,0.00,OVC,,0.00,WeatherDisplay:10.37,2013-09-03 19:51:00,
2013-09-03 15:56:00,70.7,57.5,29.77,WSW,248,10.4,10.4,63,0.00,OVC,,0.00,WeatherDisplay:10.37,2013-09-03 19:56:00,
2013-09-03 16:01:00,70.5,57.3,29.78,West,270,12.7,12.7,63,0.00,OVC,,0.00,WeatherDisplay:10.37,2013-09-03 20:01:00,
2013-09-03 16:06:00,71.2,58.0,29.78,WSW,248,14.0,14.0,63,0.00,OVC,,0.00,WeatherDisplay:10.37,2013-09-03 20:06:00,
2013-09-03 16:11:00,70.7,57.9,29.78,WNW,292,8.1,8.2,64,0.00,OVC,,0.00,WeatherDisplay:10.37,2013-09-03 20:11:00,
2013-09-03 16:16:00,70.0,57.7,29.78,WNW,292,12.7,12.7,65,0.00,OVC,,0.00,WeatherDisplay:10.37,2013-09-03 20:16:00,
2013-09-03 16:21:00,70.0,58.1,29.78,West,270,10.4,10.4,66,0.00,OVC,,0.00,WeatherDisplay:10.37,2013-09-03 20:21:00,
2013-09-03 16:26:00,70.2,57.9,29.78,WSW,248,11.5,11.5,65,0.00,OVC,,0.00,WeatherDisplay:10.37,2013-09-03 20:26:00,
2013-09-03 16:31:00,69.8,57.5,29.78,West,270,10.4,10.4,65,0.00,OVC,,0.00,WeatherDisplay:10.37,2013-09-03 20:31:00,
2013-09-03 16:36:00,70.5,57.7,29.78,NNW,338,9.9,9.9,64,0.00,OVC,,0.00,WeatherDisplay:10.37,2013-09-03 20:36:00,
2013-09-03 16:41:00,70.2,57.9,29.78,NW,315,10.4,10.4,65,0.00,OVC,,0.00,WeatherDisplay:10.37,2013-09-03 20:41:00,
2013-09-03 16:46:00,70.0,57.7,29.78,WNW,292,9.2,9.2,65,0.00,OVC,,0.00,WeatherDisplay:10.37,2013-09-03 20:46:00,
2013-09-03 16:51:00,70.0,57.7,29.78,WSW,248,10.4,10.4,65,0.00,OVC,,0.00,WeatherDisplay:10.37,2013-09-03 20:51:00,
2013-09-03 16:56:00,71.2,58.4,29.78,West,270,8.1,8.1,64,0.00,OVC,,0.00,WeatherDisplay:10.37,2013-09-03 20:56:00,
2013-09-03 17:01:00,71.1,57.9,29.78,West,270,10.4,10.4,63,0.00,BKN,,0.00,WeatherDisplay:10.37,2013-09-03 21:01:00,
2013-09-03 17:06:00,70.5,57.7,29.78,West,270,10.4,10.4,64,0.00,BKN,,0.00,WeatherDisplay:10.37,2013-09-03 21:06:00,
2013-09-03 17:11:00,70.3,57.1,29.78,West,270,11.5,11.5,63,0.00,BKN,,0.00,WeatherDisplay:10.37,2013-09-03 21:11:00,
2013-09-03 17:16:00,69.6,57.3,29.78,SW,225,11.9,11.9,65,0.00,BKN,,0.00,WeatherDisplay:10.37,2013-09-03 21:16:00,
2013-09-03 17:21:00,68.9,57.5,29.78,WNW,292,10.4,10.4,67,0.00,BKN,,0.00,WeatherDisplay:10.37,2013-09-03 21:21:00,
2013-09-03 17:26:00,68.5,57.1,29.79,WNW,292,11.5,11.5,67,0.00,BKN,,0.00,WeatherDisplay:10.37,2013-09-03 21:26:00,
2013-09-03 17:31:00,68.4,57.0,29.79,NNE,22,8.1,8.1,67,0.00,BKN,,0.00,WeatherDisplay:10.37,2013-09-03 21:31:00,
2013-09-03 17:36:00,68.0,57.0,29.80,North,360,9.2,9.2,68,0.00,BKN,,0.00,WeatherDisplay:10.37,2013-09-03 21:36:00,
2013-09-03 17:41:00,68.2,57.2,29.80,WNW,292,9.2,9.2,68,0.00,BKN,,0.00,WeatherDisplay:10.37,2013-09-03 21:41:00,
2013-09-03 17:46:00,68.9,57.5,29.80,NW,315,9.4,9.4,67,0.00,BKN,,0.00,WeatherDisplay:10.37,2013-09-03 21:46:00,
2013-09-03 17:51:00,68.5,57.5,29.80,West,270,9.4,9.4,68,0.00,BKN,,0.00,WeatherDisplay:10.37,2013-09-03 21:51:00,
2013-09-03 17:56:00,68.7,57.7,29.80,NNW,338,10.9,10.9,68,0.00,BKN,,0.00,WeatherDisplay:10.37,2013-09-03 21:56:00,
2013-09-03 18:01:00,67.6,57.5,29.80,WNW,292,9.2,9.2,70,0.00,OVC,,0.00,WeatherDisplay:10.37,2013-09-03 22:01:00,
2013-09-03 18:06:00,67.3,57.6,29.80,NW,315,11.5,11.5,71,0.00,OVC,,0.00,WeatherDisplay:10.37,2013-09-03 22:06:00,
2013-09-03 18:11:00,67.1,57.4,29.81,South,180,6.9,6.9,71,0.00,OVC,,0.00,WeatherDisplay:10.37,2013-09-03 22:11:00,
2013-09-03 18:16:00,66.9,57.2,29.81,NE,45,6.9,6.9,71,0.00,OVC,,0.00,WeatherDisplay:10.37,2013-09-03 22:16:00,
2013-09-03 18:21:00,66.7,57.4,29.81,ENE,68,6.9,6.9,72,0.00,OVC,,0.00,WeatherDisplay:10.37,2013-09-03 22:21:00,
2013-09-03 18:26:00,66.9,57.6,29.80,East,90,6.9,6.9,72,0.00,OVC,,0.00,WeatherDisplay:10.37,2013-09-03 22:26:00,
2013-09-03 18:31:00,66.9,57.6,29.80,West,270,7.3,7.3,72,0.00,OVC,,0.00,WeatherDisplay:10.37,2013-09-03 22:31:00,
2013-09-03 18:36:00,66.6,57.3,29.80,West,270,9.2,9.2,72,0.00,OVC,,0.00,WeatherDisplay:10.37,2013-09-03 22:36:00,
2013-09-03 18:41:00,66.4,57.1,29.80,WNW,292,5.8,5.8,72,0.00,OVC,,0.00,WeatherDisplay:10.37,2013-09-03 22:41:00,
2013-09-03 18:46:00,66.2,56.9,29.80,WNW,292,5.8,5.8,72,0.00,OVC,,0.00,WeatherDisplay:10.37,2013-09-03 22:46:00,
2013-09-03 18:51:00,66.2,56.9,29.80,WNW,292,10.4,10.4,72,0.00,OVC,,0.00,WeatherDisplay:10.37,2013-09-03 22:51:00,
2013-09-03 18:56:00,65.8,56.9,29.80,NW,315,6.9,6.9,73,0.00,OVC,,0.00,WeatherDisplay:10.37,2013-09-03 22:56:00,
2013-09-03 19:01:00,65.7,56.8,29.81,NNE,22,7.3,7.3,73,0.00,OVC,,0.00,WeatherDisplay:10.37,2013-09-03 23:01:00,
2013-09-03 19:06:00,65.7,57.2,29.81,NE,45,5.8,5.8,74,0.00,OVC,,0.00,WeatherDisplay:10.37,2013-09-03 23:06:00,
2013-09-03 19:11:00,65.1,56.6,29.81,West,270,9.2,9.2,74,0.00,OVC,,0.00,WeatherDisplay:10.37,2013-09-03 23:11:00,
2013-09-03 19:16:00,65.1,56.6,29.81,ESE,112,5.8,5.8,74,0.00,OVC,,0.00,WeatherDisplay:10.37,2013-09-03 23:16:00,
2013-09-03 19:21:00,64.9,56.4,29.81,NW,315,9.2,9.2,74,0.00,OVC,,0.00,WeatherDisplay:10.37,2013-09-03 23:21:00,
2013-09-03 19:26:00,64.9,56.4,29.81,West,270,6.9,6.9,74,0.00,OVC,,0.00,WeatherDisplay:10.37,2013-09-03 23:26:00,
2013-09-03 19:31:00,64.8,56.3,29.81,WNW,292,6.3,6.3,74,0.00,OVC,,0.00,WeatherDisplay:10.37,2013-09-03 23:31:00,
2013-09-03 19:36:00,64.8,56.3,29.82,ESE,112,5.8,5.8,74,0.00,OVC,,0.00,WeatherDisplay:10.37,2013-09-03 23:36:00,
2013-09-03 19:41:00,64.4,55.9,29.82,WNW,292,10.4,10.4,74,0.00,OVC,,0.00,WeatherDisplay:10.37,2013-09-03 23:41:00,
2013-09-03 19:46:00,64.4,56.3,29.82,NW,315,9.2,9.2,75,0.00,OVC,,0.00,WeatherDisplay:10.37,2013-09-03 23:46:00,
2013-09-03 19:51:00,64.2,56.1,29.82,NW,315,8.1,8.1,75,0.00,OVC,,0.00,WeatherDisplay:10.37,2013-09-03 23:51:00,
2013-09-03 19:56:00,64.0,55.9,29.82,NNE,22,6.9,6.9,75,0.00,OVC,,0.00,WeatherDisplay:10.37,2013-09-03 23:56:00,
2013-09-03 20:01:00,64.0,56.3,29.83,NW,315,5.8,5.8,76,0.00,OVC,,0.00,WeatherDisplay:10.37,2013-09-04 00:01:00,
2013-09-03 20:06:00,63.9,56.2,29.83,West,270,4.7,4.7,76,0.00,OVC,,0.00,WeatherDisplay:10.37,2013-09-04 00:06:00,
2013-09-03 20:11:00,63.9,56.2,29.83,NW,315,6.3,6.3,76,0.00,OVC,,0.00,WeatherDisplay:10.37,2013-09-04 00:11:00,
2013-09-03 20:16:00,63.7,56.0,29.83,WNW,292,8.1,8.1,76,0.00,OVC,,0.00,WeatherDisplay:10.37,2013-09-04 00:16:00,
2013-09-03 20:21:00,63.7,56.0,29.83,WNW,292,8.1,8.1,76,0.00,OVC,,0.00,WeatherDisplay:10.37,2013-09-04 00:21:00,
2013-09-03 20:26:00,63.7,56.0,29.84,NW,315,8.1,8.1,76,0.00,OVC,,0.00,WeatherDisplay:10.37,2013-09-04 00:26:00,
2013-09-03 20:31:00,63.7,56.0,29.84,West,270,5.3,5.3,76,0.00,OVC,,0.00,WeatherDisplay:10.37,2013-09-04 00:31:00,
2013-09-03 20:36:00,63.7,56.0,29.84,NW,315,8.1,8.1,76,0.00,OVC,,0.00,WeatherDisplay:10.37,2013-09-04 00:36:00,
2013-09-03 20:41:00,63.7,56.0,29.84,SW,225,5.8,5.8,76,0.00,OVC,,0.00,WeatherDisplay:10.37,2013-09-04 00:41:00,
2013-09-03 20:46:00,63.7,56.0,29.85,South,180,5.8,5.8,76,0.00,OVC,,0.00,WeatherDisplay:10.37,2013-09-04 00:46:00,
2013-09-03 20:51:00,63.7,56.0,29.85,NE,45,4.2,4.2,76,0.00,OVC,,0.00,WeatherDisplay:10.37,2013-09-04 00:51:00,
2013-09-03 20:56:00,63.7,56.0,29.85,West,270,4.2,4.2,76,0.00,OVC,,0.00,WeatherDisplay:10.37,2013-09-04 00:56:00,
2013-09-03 21:01:00,63.5,55.8,29.85,West,270,4.2,4.2,76,0.00,OVC,,0.00,WeatherDisplay:10.37,2013-09-04 01:01:00,
2013-09-03 21:06:00,63.5,55.8,29.85,West,270,5.8,5.8,76,0.00,OVC,,0.00,WeatherDisplay:10.37,2013-09-04 01:06:00,
2013-09-03 21:11:00,63.5,55.8,29.86,NW,315,6.9,6.9,76,0.00,OVC,,0.00,WeatherDisplay:10.37,2013-09-04 01:11:00,
2013-09-03 21:16:00,63.5,55.8,29.86,WSW,248,5.8,5.8,76,0.00,OVC,,0.00,WeatherDisplay:10.37,2013-09-04 01:16:00,
2013-09-03 21:21:00,63.3,55.6,29.86,WNW,292,6.9,6.9,76,0.00,OVC,,0.00,WeatherDisplay:10.37,2013-09-04 01:21:00,
2013-09-03 21:26:00,63.3,55.6,29.86,West,270,5.8,5.8,76,0.00,OVC,,0.00,WeatherDisplay:10.37,2013-09-04 01:26:00,
2013-09-03 21:31:00,63.1,55.4,29.86,West,270,4.6,4.6,76,0.00,OVC,,0.00,WeatherDisplay:10.37,2013-09-04 01:31:00,
2013-09-03 21:36:00,62.8,55.1,29.86,WNW,292,4.7,4.7,76,0.00,OVC,,0.00,WeatherDisplay:10.37,2013-09-04 01:36:00,
2013-09-03 21:41:00,62.6,54.9,29.86,NW,315,3.5,3.5,76,0.00,OVC,,0.00,WeatherDisplay:10.37,2013-09-04 01:41:00,
2013-09-03 21:46:00,62.4,54.7,29.87,East,90,2.3,2.3,76,0.00,OVC,,0.00,WeatherDisplay:10.37,2013-09-04 01:46:00,
2013-09-03 21:51:00,62.2,54.9,29.87,East,90,3.5,3.5,77,0.00,OVC,,0.00,WeatherDisplay:10.37,2013-09-04 01:51:00,
2013-09-03 21:56:00,62.1,54.8,29.87,NNW,338,4.6,4.6,77,0.00,OVC,,0.00,WeatherDisplay:10.37,2013-09-04 01:56:00,
2013-09-03 22:01:00,61.7,54.8,29.86,West,270,4.6,4.6,78,0.00,OVC,,0.00,WeatherDisplay:10.37,2013-09-04 02:01:00,
2013-09-03 22:06:00,61.5,54.6,29.86,WNW,292,3.5,3.5,78,0.00,OVC,,0.00,WeatherDisplay:10.37,2013-09-04 02:06:00,
2013-09-03 22:11:00,61.3,54.7,29.86,West,270,2.3,2.3,79,0.00,OVC,,0.00,WeatherDisplay:10.37,2013-09-04 02:11:00,
2013-09-03 22:16:00,61.2,54.6,29.86,West,270,2.3,2.3,79,0.00,OVC,,0.00,WeatherDisplay:10.37,2013-09-04 02:16:00,
2013-09-03 22:21:00,61.0,54.4,29.86,NNW,338,2.3,2.3,79,0.00,OVC,,0.00,WeatherDisplay:10.37,2013-09-04 02:21:00,
2013-09-03 22:26:00,61.2,54.6,29.87,WNW,292,2.3,2.3,79,0.00,OVC,,0.00,WeatherDisplay:10.37,2013-09-04 02:26:00,
2013-09-03 22:31:00,61.0,54.4,29.87,West,270,2.3,0.0,79,0.00,OVC,,0.00,WeatherDisplay:10.37,2013-09-04 02:31:00,
2013-09-03 22:36:00,60.6,54.4,29.87,SW,225,2.3,2.3,80,0.00,OVC,,0.00,WeatherDisplay:10.37,2013-09-04 02:36:00,
2013-09-03 22:41:00,60.4,54.2,29.87,West,270,0.0,0.0,80,0.00,OVC,,0.00,WeatherDisplay:10.37,2013-09-04 02:41:00,
2013-09-03 22:46:00,60.1,54.2,29.87,West,270,0.0,0.0,81,0.00,OVC,,0.00,WeatherDisplay:10.37,2013-09-04 02:46:00,
2013-09-03 22:51:00,59.7,54.2,29.87,NNW,338,1.7,1.7,82,0.00,OVC,,0.00,WeatherDisplay:10.37,2013-09-04 02:51:00,
2013-09-03 22:56:00,59.9,54.4,29.87,NW,315,2.7,2.7,82,0.00,OVC,,0.00,WeatherDisplay:10.37,2013-09-04 02:56:00,
2013-09-03 23:01:00,59.5,54.0,29.87,West,270,0.0,0.0,82,0.00,OVC,,0.00,WeatherDisplay:10.37,2013-09-04 03:01:00,
2013-09-03 23:06:00,59.4,53.9,29.87,West,270,2.3,0.0,82,0.00,OVC,,0.00,WeatherDisplay:10.37,2013-09-04 03:06:00,
2013-09-03 23:11:00,59.2,54.0,29.87,West,270,0.0,0.0,83,0.00,OVC,,0.00,WeatherDisplay:10.37,2013-09-04 03:11:00,
2013-09-03 23:16:00,58.8,53.6,29.87,SW,225,0.0,0.0,83,0.00,OVC,,0.00,WeatherDisplay:10.37,2013-09-04 03:16:00,
2013-09-03 23:21:00,58.5,54.0,29.87,SW,225,2.3,2.3,85,0.00,OVC,,0.00,WeatherDisplay:10.37,2013-09-04 03:21:00,
2013-09-03 23:26:00,57.9,53.7,29.87,SW,225,2.2,2.2,86,0.00,OVC,,0.00,WeatherDisplay:10.37,2013-09-04 03:26:00,
2013-09-03 23:31:00,57.7,53.5,29.87,SW,225,2.3,2.3,86,0.00,OVC,,0.00,WeatherDisplay:10.37,2013-09-04 03:31:00,
2013-09-03 23:36:00,57.7,53.5,29.87,West,270,3.2,3.2,86,0.00,OVC,,0.00,WeatherDisplay:10.37,2013-09-04 03:36:00,
2013-09-03 23:41:00,58.3,53.8,29.87,SW,225,4.6,4.6,85,0.00,OVC,,0.00,WeatherDisplay:10.37,2013-09-04 03:41:00,
2013-09-03 23:46:00,58.5,54.0,29.87,WSW,248,3.5,3.5,85,0.00,OVC,,0.00,WeatherDisplay:10.37,2013-09-04 03:46:00,
2013-09-03 23:51:00,58.6,53.8,29.87,WSW,248,3.5,3.5,84,0.00,OVC,,0.00,WeatherDisplay:10.37,2013-09-04 03:51:00,
2013-09-03 23:56:00,58.3,53.5,29.87,West,270,2.3,2.3,84,0.00,OVC,,0.00,WeatherDisplay:10.37,2013-09-04 03:56:00,